sensor_id;sensor_type;location;lat;lon;timestamp;pressure;altitude;pressure_sealevel;temperature;humidity
39129;BME280;24864;49.940;19.770;2022-08-20T00:03:30;97744.75;;;21.07;100.00
39129;BME280;24864;49.940;19.770;2022-08-20T00:06:03;97742.34;;;21.09;100.00
39129;BME280;24864;49.940;19.770;2022-08-20T00:08:31;97732.97;;;21.03;100.00
39129;BME280;24864;49.940;19.770;2022-08-20T00:11:00;97741.28;;;21.03;100.00
39129;BME280;24864;49.940;19.770;2022-08-20T00:13:31;97753.03;;;20.87;100.00
39129;BME280;24864;49.940;19.770;2022-08-20T00:16:00;97762.81;;;20.68;100.00
39129;BME280;24864;49.940;19.770;2022-08-20T00:18:28;97752.13;;;20.70;100.00
39129;BME280;24864;49.940;19.770;2022-08-20T00:20:57;97758.03;;;20.72;100.00
39129;BME280;24864;49.940;19.770;2022-08-20T00:23:28;97761.97;;;20.75;100.00
39129;BME280;24864;49.940;19.770;2022-08-20T00:25:56;97766.28;;;20.76;100.00
39129;BME280;24864;49.940;19.770;2022-08-20T00:28:24;97769.03;;;20.76;100.00
39129;BME280;24864;49.940;19.770;2022-08-20T00:30:52;97759.13;;;20.78;100.00
39129;BME280;24864;49.940;19.770;2022-08-20T00:33:22;97752.25;;;20.86;100.00
39129;BME280;24864;49.940;19.770;2022-08-20T00:35:52;97746.22;;;20.92;100.00
39129;BME280;24864;49.940;19.770;2022-08-20T00:38:23;97735.44;;;20.97;100.00
39129;BME280;24864;49.940;19.770;2022-08-20T00:40:55;97742.47;;;21.02;100.00
39129;BME280;24864;49.940;19.770;2022-08-20T00:43:32;97739.06;;;20.94;100.00
39129;BME280;24864;49.940;19.770;2022-08-20T00:46:04;97729.50;;;20.75;100.00
39129;BME280;24864;49.940;19.770;2022-08-20T00:48:34;97717.91;;;20.57;100.00
39129;BME280;24864;49.940;19.770;2022-08-20T00:51:05;97717.06;;;20.60;100.00
39129;BME280;24864;49.940;19.770;2022-08-20T00:53:35;97728.75;;;20.71;100.00
39129;BME280;24864;49.940;19.770;2022-08-20T00:56:07;97722.47;;;20.67;100.00
39129;BME280;24864;49.940;19.770;2022-08-20T00:58:37;97742.91;;;20.77;100.00
39129;BME280;24864;49.940;19.770;2022-08-20T01:01:07;97740.50;;;20.79;100.00
39129;BME280;24864;49.940;19.770;2022-08-20T01:03:36;97742.16;;;20.76;100.00
39129;BME280;24864;49.940;19.770;2022-08-20T01:06:04;97742.16;;;20.76;100.00
39129;BME280;24864;49.940;19.770;2022-08-20T01:08:32;97733.41;;;20.78;100.00
39129;BME280;24864;49.940;19.770;2022-08-20T01:11:00;97726.22;;;20.80;100.00
39129;BME280;24864;49.940;19.770;2022-08-20T01:13:38;97730.19;;;20.79;100.00
39129;BME280;24864;49.940;19.770;2022-08-20T01:16:14;97728.66;;;20.78;100.00
39129;BME280;24864;49.940;19.770;2022-08-20T01:18:46;97734.53;;;20.80;100.00
39129;BME280;24864;49.940;19.770;2022-08-20T01:21:16;97733.34;;;20.81;100.00
39129;BME280;24864;49.940;19.770;2022-08-20T01:23:52;97740.03;;;20.84;100.00
39129;BME280;24864;49.940;19.770;2022-08-20T01:26:26;97746.81;;;20.79;100.00
39129;BME280;24864;49.940;19.770;2022-08-20T01:28:58;97760.75;;;20.76;100.00
39129;BME280;24864;49.940;19.770;2022-08-20T01:31:31;97747.06;;;20.65;100.00
39129;BME280;24864;49.940;19.770;2022-08-20T01:34:02;97757.91;;;20.79;100.00
39129;BME280;24864;49.940;19.770;2022-08-20T01:36:37;97757.19;;;20.75;100.00
39129;BME280;24864;49.940;19.770;2022-08-20T01:39:15;97758.84;;;20.69;100.00
39129;BME280;24864;49.940;19.770;2022-08-20T01:41:51;97759.69;;;20.66;100.00
39129;BME280;24864;49.940;19.770;2022-08-20T01:44:23;97761.31;;;20.63;100.00
39129;BME280;24864;49.940;19.770;2022-08-20T01:46:52;97751.75;;;20.68;100.00
39129;BME280;24864;49.940;19.770;2022-08-20T01:49:26;97736.81;;;20.62;100.00
39129;BME280;24864;49.940;19.770;2022-08-20T01:51:57;97744.03;;;20.55;100.00
39129;BME280;24864;49.940;19.770;2022-08-20T01:54:26;97735.13;;;20.44;100.00
39129;BME280;24864;49.940;19.770;2022-08-20T01:56:58;97740.63;;;20.20;100.00
39129;BME280;24864;49.940;19.770;2022-08-20T01:59:28;97741.78;;;19.96;100.00
39129;BME280;24864;49.940;19.770;2022-08-20T02:01:57;97724.50;;;19.88;100.00
39129;BME280;24864;49.940;19.770;2022-08-20T02:04:25;97736.34;;;19.88;100.00
39129;BME280;24864;49.940;19.770;2022-08-20T02:06:55;97747.50;;;19.81;100.00
39129;BME280;24864;49.940;19.770;2022-08-20T02:09:25;97749.88;;;19.79;100.00
39129;BME280;24864;49.940;19.770;2022-08-20T02:11:53;97737.72;;;19.73;100.00
39129;BME280;24864;49.940;19.770;2022-08-20T02:14:24;97736.44;;;19.81;100.00
39129;BME280;24864;49.940;19.770;2022-08-20T02:16:52;97742.78;;;19.78;100.00
39129;BME280;24864;49.940;19.770;2022-08-20T02:19:28;97737.34;;;19.71;100.00
39129;BME280;24864;49.940;19.770;2022-08-20T02:21:59;97749.97;;;19.72;100.00
39129;BME280;24864;49.940;19.770;2022-08-20T02:24:28;97745.28;;;19.69;100.00
39129;BME280;24864;49.940;19.770;2022-08-20T02:26:56;97742.06;;;19.74;100.00
39129;BME280;24864;49.940;19.770;2022-08-20T02:29:25;97744.53;;;19.65;100.00
39129;BME280;24864;49.940;19.770;2022-08-20T02:31:54;97742.66;;;19.58;100.00
39129;BME280;24864;49.940;19.770;2022-08-20T02:34:41;97732.91;;;19.46;100.00
39129;BME280;24864;49.940;19.770;2022-08-20T02:37:10;97718.44;;;19.35;100.00
39129;BME280;24864;49.940;19.770;2022-08-20T02:39:40;97714.81;;;19.41;100.00
39129;BME280;24864;49.940;19.770;2022-08-20T02:42:07;97713.72;;;19.32;100.00
39129;BME280;24864;49.940;19.770;2022-08-20T02:44:39;97716.47;;;19.35;100.00
39129;BME280;24864;49.940;19.770;2022-08-20T02:47:07;97714.94;;;19.31;100.00
39129;BME280;24864;49.940;19.770;2022-08-20T02:49:35;97709.50;;;19.23;100.00
39129;BME280;24864;49.940;19.770;2022-08-20T02:52:03;97701.44;;;19.36;100.00
39129;BME280;24864;49.940;19.770;2022-08-20T02:54:31;97700.25;;;19.37;100.00
39129;BME280;24864;49.940;19.770;2022-08-20T02:56:59;97691.13;;;19.40;100.00
39129;BME280;24864;49.940;19.770;2022-08-20T02:59:29;97682.47;;;19.38;100.00
39129;BME280;24864;49.940;19.770;2022-08-20T03:01:58;97692.72;;;19.38;100.00
39129;BME280;24864;49.940;19.770;2022-08-20T03:04:27;97697.06;;;19.39;100.00
39129;BME280;24864;49.940;19.770;2022-08-20T03:06:55;97688.78;;;19.39;100.00
39129;BME280;24864;49.940;19.770;2022-08-20T03:09:23;97695.13;;;19.36;100.00
39129;BME280;24864;49.940;19.770;2022-08-20T03:11:51;97691.16;;;19.37;100.00
39129;BME280;24864;49.940;19.770;2022-08-20T03:14:20;97676.91;;;19.42;100.00
39129;BME280;24864;49.940;19.770;2022-08-20T03:16:48;97676.22;;;19.31;100.00
39129;BME280;24864;49.940;19.770;2022-08-20T03:19:17;97667.84;;;19.38;100.00
39129;BME280;24864;49.940;19.770;2022-08-20T03:21:45;97670.59;;;19.38;100.00
39129;BME280;24864;49.940;19.770;2022-08-20T03:24:13;97666.81;;;19.24;100.00
39129;BME280;24864;49.940;19.770;2022-08-20T03:26:41;97670.81;;;19.23;100.00
39129;BME280;24864;49.940;19.770;2022-08-20T03:29:09;97674.78;;;19.22;100.00
39129;BME280;24864;49.940;19.770;2022-08-20T03:31:37;97668.47;;;19.18;100.00
39129;BME280;24864;49.940;19.770;2022-08-20T03:34:05;97659.00;;;19.19;100.00
39129;BME280;24864;49.940;19.770;2022-08-20T03:36:35;97661.47;;;19.14;100.00
39129;BME280;24864;49.940;19.770;2022-08-20T03:39:06;97661.84;;;19.12;100.00
39129;BME280;24864;49.940;19.770;2022-08-20T03:41:37;97667.84;;;19.07;100.00
39129;BME280;24864;49.940;19.770;2022-08-20T03:44:05;97662.34;;;19.03;100.00
39129;BME280;24864;49.940;19.770;2022-08-20T03:46:33;97665.91;;;19.04;100.00
39129;BME280;24864;49.940;19.770;2022-08-20T03:49:02;97664.69;;;19.05;100.00
39129;BME280;24864;49.940;19.770;2022-08-20T03:51:31;97665.06;;;19.07;100.00
39129;BME280;24864;49.940;19.770;2022-08-20T03:54:20;97663.88;;;19.08;100.00
39129;BME280;24864;49.940;19.770;2022-08-20T03:56:48;97672.56;;;19.10;100.00
39129;BME280;24864;49.940;19.770;2022-08-20T03:59:16;97702.50;;;19.15;100.00
39129;BME280;24864;49.940;19.770;2022-08-20T04:01:44;97691.41;;;19.19;100.00
39129;BME280;24864;49.940;19.770;2022-08-20T04:04:13;97687.31;;;19.27;100.00
39129;BME280;24864;49.940;19.770;2022-08-20T04:06:42;97695.53;;;19.34;100.00
39129;BME280;24864;49.940;19.770;2022-08-20T04:09:11;97700.50;;;19.47;100.00
39129;BME280;24864;49.940;19.770;2022-08-20T04:11:40;97697.44;;;19.41;100.00
39129;BME280;24864;49.940;19.770;2022-08-20T04:14:09;97700.59;;;19.43;100.00
39129;BME280;24864;49.940;19.770;2022-08-20T04:16:43;97698.16;;;19.45;100.00
39129;BME280;24864;49.940;19.770;2022-08-20T04:19:14;97697.44;;;19.41;100.00
39129;BME280;24864;49.940;19.770;2022-08-20T04:21:42;97697.44;;;19.41;100.00
39129;BME280;24864;49.940;19.770;2022-08-20T04:24:14;97696.69;;;19.37;100.00
39129;BME280;24864;49.940;19.770;2022-08-20T04:26:59;97685.69;;;19.33;100.00
39129;BME280;24864;49.940;19.770;2022-08-20T04:29:28;97681.31;;;19.36;100.00
39129;BME280;24864;49.940;19.770;2022-08-20T04:31:58;97672.31;;;19.28;100.00
39129;BME280;24864;49.940;19.770;2022-08-20T04:34:32;97667.63;;;19.25;100.00
39129;BME280;24864;49.940;19.770;2022-08-20T04:37:00;97649.38;;;19.31;100.00
39129;BME280;24864;49.940;19.770;2022-08-20T04:39:28;97652.19;;;19.27;100.00
39129;BME280;24864;49.940;19.770;2022-08-20T04:41:57;97648.69;;;19.23;100.00
39129;BME280;24864;49.940;19.770;2022-08-20T04:44:25;97645.47;;;19.29;100.00
39129;BME280;24864;49.940;19.770;2022-08-20T04:46:53;97647.81;;;19.30;100.00
39129;BME280;24864;49.940;19.770;2022-08-20T04:49:21;97639.94;;;19.29;100.00
39129;BME280;24864;49.940;19.770;2022-08-20T04:51:51;97649.44;;;19.27;100.00
39129;BME280;24864;49.940;19.770;2022-08-20T04:54:20;97659.56;;;19.38;100.00
39129;BME280;24864;49.940;19.770;2022-08-20T04:56:48;97660.94;;;19.53;100.00
39129;BME280;24864;49.940;19.770;2022-08-20T04:59:17;97657.28;;;19.60;100.00
39129;BME280;24864;49.940;19.770;2022-08-20T05:01:45;97661.13;;;19.66;100.00
39129;BME280;24864;49.940;19.770;2022-08-20T05:04:13;97664.59;;;19.74;100.00
39129;BME280;24864;49.940;19.770;2022-08-20T05:06:41;97662.88;;;19.87;100.00
39129;BME280;24864;49.940;19.770;2022-08-20T05:09:10;97664.28;;;19.96;100.00
39129;BME280;24864;49.940;19.770;2022-08-20T05:11:38;97648.28;;;20.11;100.00
39129;BME280;24864;49.940;19.770;2022-08-20T05:14:07;97638.81;;;20.32;100.00
39129;BME280;24864;49.940;19.770;2022-08-20T05:16:37;97626.22;;;20.51;100.00
39129;BME280;24864;49.940;19.770;2022-08-20T05:19:08;97632.16;;;20.73;100.00
39129;BME280;24864;49.940;19.770;2022-08-20T05:21:36;97629.34;;;20.97;100.00
39129;BME280;24864;49.940;19.770;2022-08-20T05:24:05;97629.53;;;21.06;100.00
39129;BME280;24864;49.940;19.770;2022-08-20T05:26:33;97627.31;;;21.17;100.00
39129;BME280;24864;49.940;19.770;2022-08-20T05:29:01;97629.16;;;21.24;100.00
39129;BME280;24864;49.940;19.770;2022-08-20T05:31:31;97632.84;;;21.38;100.00
39129;BME280;24864;49.940;19.770;2022-08-20T05:34:02;97633.47;;;21.45;100.00
39129;BME280;24864;49.940;19.770;2022-08-20T05:36:35;97629.13;;;21.44;100.00
39129;BME280;24864;49.940;19.770;2022-08-20T05:39:04;97628.69;;;21.66;100.00
39129;BME280;24864;49.940;19.770;2022-08-20T05:41:31;97632.69;;;21.81;100.00
39129;BME280;24864;49.940;19.770;2022-08-20T05:43:59;97641.72;;;21.86;100.00
39129;BME280;24864;49.940;19.770;2022-08-20T05:46:28;97643.13;;;21.94;100.00
39129;BME280;24864;49.940;19.770;2022-08-20T05:48:56;97649.19;;;22.05;100.00
39129;BME280;24864;49.940;19.770;2022-08-20T05:51:27;97652.19;;;22.11;100.00
39129;BME280;24864;49.940;19.770;2022-08-20T05:53:56;97651.25;;;22.18;100.00
39129;BME280;24864;49.940;19.770;2022-08-20T05:56:26;97649.59;;;22.20;100.00
39129;BME280;24864;49.940;19.770;2022-08-20T05:58:58;97652.03;;;22.18;100.00
39129;BME280;24864;49.940;19.770;2022-08-20T06:01:28;97661.84;;;22.23;100.00
39129;BME280;24864;49.940;19.770;2022-08-20T06:03:56;97652.56;;;22.29;100.00
39129;BME280;24864;49.940;19.770;2022-08-20T06:06:43;97671.47;;;22.35;100.00
39129;BME280;24864;49.940;19.770;2022-08-20T06:09:15;97675.38;;;22.37;100.00
39129;BME280;24864;49.940;19.770;2022-08-20T06:11:59;97670.69;;;22.34;100.00
39129;BME280;24864;49.940;19.770;2022-08-20T06:14:28;97669.16;;;22.33;100.00
39129;BME280;24864;49.940;19.770;2022-08-20T06:17:02;97683.03;;;22.33;100.00
39129;BME280;24864;49.940;19.770;2022-08-20T06:19:31;97683.53;;;22.28;100.00
39129;BME280;24864;49.940;19.770;2022-08-20T06:22:01;97690.81;;;22.22;100.00
39129;BME280;24864;49.940;19.770;2022-08-20T06:24:44;97695.16;;;22.23;100.00
39129;BME280;24864;49.940;19.770;2022-08-20T06:27:14;97696.22;;;22.29;100.00
39129;BME280;24864;49.940;19.770;2022-08-20T06:29:43;97693.69;;;22.35;100.00
39129;BME280;24864;49.940;19.770;2022-08-20T06:32:11;97690.41;;;22.40;100.00
39129;BME280;24864;49.940;19.770;2022-08-20T06:34:39;97695.88;;;22.43;100.00
39129;BME280;24864;49.940;19.770;2022-08-20T06:37:20;97691.00;;;22.48;100.00
39129;BME280;24864;49.940;19.770;2022-08-20T06:39:59;97693.25;;;22.53;100.00
39129;BME280;24864;49.940;19.770;2022-08-20T06:42:28;97682.69;;;22.31;100.00
39129;BME280;24864;49.940;19.770;2022-08-20T06:44:56;97681.63;;;22.08;100.00
39129;BME280;24864;49.940;19.770;2022-08-20T06:47:25;97687.09;;;21.95;100.00
39129;BME280;24864;49.940;19.770;2022-08-20T06:49:53;97684.56;;;22.01;100.00
39129;BME280;24864;49.940;19.770;2022-08-20T06:52:23;97684.38;;;21.92;100.00
39129;BME280;24864;49.940;19.770;2022-08-20T06:55:13;97676.38;;;21.77;100.00
39129;BME280;24864;49.940;19.770;2022-08-20T06:57:42;97694.75;;;21.71;100.00
39129;BME280;24864;49.940;19.770;2022-08-20T07:00:12;97691.91;;;21.75;100.00
39129;BME280;24864;49.940;19.770;2022-08-20T07:02:41;97699.78;;;21.76;100.00
39129;BME280;24864;49.940;19.770;2022-08-20T07:05:09;97694.97;;;21.80;100.00
39129;BME280;24864;49.940;19.770;2022-08-20T07:07:38;97691.66;;;21.86;100.00
39129;BME280;24864;49.940;19.770;2022-08-20T07:10:12;97699.63;;;21.83;100.00
39129;BME280;24864;49.940;19.770;2022-08-20T07:12:41;97694.44;;;21.86;100.00
39129;BME280;24864;49.940;19.770;2022-08-20T07:15:10;97700.00;;;22.02;100.00
39129;BME280;24864;49.940;19.770;2022-08-20T07:17:39;97680.41;;;22.09;100.00
39129;BME280;24864;49.940;19.770;2022-08-20T07:20:12;97690.13;;;22.34;100.00
39129;BME280;24864;49.940;19.770;2022-08-20T07:22:43;97698.50;;;22.51;100.00
39129;BME280;24864;49.940;19.770;2022-08-20T07:25:13;97691.97;;;22.57;100.00
39129;BME280;24864;49.940;19.770;2022-08-20T07:27:42;97690.03;;;22.71;100.00
39129;BME280;24864;49.940;19.770;2022-08-20T07:30:14;97691.41;;;22.79;100.00
39129;BME280;24864;49.940;19.770;2022-08-20T07:33:24;97687.63;;;23.02;100.00
39129;BME280;24864;49.940;19.770;2022-08-20T07:35:54;97688.78;;;23.18;100.00
39129;BME280;24864;49.940;19.770;2022-08-20T07:38:24;97685.84;;;23.38;100.00
39129;BME280;24864;49.940;19.770;2022-08-20T07:40:55;97686.22;;;23.53;100.00
39129;BME280;24864;49.940;19.770;2022-08-20T07:43:24;97673.66;;;23.61;100.00
39129;BME280;24864;49.940;19.770;2022-08-20T07:45:54;97684.00;;;23.86;100.00
39129;BME280;24864;49.940;19.770;2022-08-20T07:48:24;97678.13;;;23.97;100.00
39129;BME280;24864;49.940;19.770;2022-08-20T07:51:00;97678.91;;;24.11;100.00
39129;BME280;24864;49.940;19.770;2022-08-20T07:53:31;97670.78;;;24.16;100.00
39129;BME280;24864;49.940;19.770;2022-08-20T07:56:03;97678.88;;;24.36;100.00
39129;BME280;24864;49.940;19.770;2022-08-20T07:58:33;97668.53;;;24.59;100.00
39129;BME280;24864;49.940;19.770;2022-08-20T08:01:03;97674.22;;;24.55;100.00
39129;BME280;24864;49.940;19.770;2022-08-20T08:03:31;97672.78;;;24.77;100.00
39129;BME280;24864;49.940;19.770;2022-08-20T08:06:15;97673.09;;;25.01;100.00
39129;BME280;24864;49.940;19.770;2022-08-20T08:08:59;97677.44;;;25.24;100.00
39129;BME280;24864;49.940;19.770;2022-08-20T08:11:28;97673.94;;;25.33;100.00
39129;BME280;24864;49.940;19.770;2022-08-20T08:13:58;97677.19;;;25.31;100.00
39129;BME280;24864;49.940;19.770;2022-08-20T08:16:26;97688.69;;;25.11;100.00
39129;BME280;24864;49.940;19.770;2022-08-20T08:18:57;97676.47;;;25.18;100.00
39129;BME280;24864;49.940;19.770;2022-08-20T08:21:29;97678.16;;;25.15;100.00
39129;BME280;24864;49.940;19.770;2022-08-20T08:23:59;97678.41;;;25.30;100.00
39129;BME280;24864;49.940;19.770;2022-08-20T08:26:28;97678.38;;;25.43;100.00
39129;BME280;24864;49.940;19.770;2022-08-20T08:28:56;97673.03;;;25.58;100.00
39129;BME280;24864;49.940;19.770;2022-08-20T08:31:25;97666.47;;;25.84;100.00
39129;BME280;24864;49.940;19.770;2022-08-20T08:33:53;97663.59;;;26.06;100.00
39129;BME280;24864;49.940;19.770;2022-08-20T08:36:21;97666.16;;;26.13;100.00
39129;BME280;24864;49.940;19.770;2022-08-20T08:38:51;97658.38;;;26.26;100.00
39129;BME280;24864;49.940;19.770;2022-08-20T08:41:26;97659.69;;;26.44;100.00
39129;BME280;24864;49.940;19.770;2022-08-20T08:44:02;97661.72;;;26.53;100.00
39129;BME280;24864;49.940;19.770;2022-08-20T08:46:34;97653.16;;;26.56;100.00
39129;BME280;24864;49.940;19.770;2022-08-20T08:49:09;97652.25;;;26.69;100.00
39129;BME280;24864;49.940;19.770;2022-08-20T08:51:41;97656.38;;;26.36;100.00
39129;BME280;24864;49.940;19.770;2022-08-20T08:54:13;97654.03;;;26.07;100.00
39129;BME280;24864;49.940;19.770;2022-08-20T08:56:45;97653.22;;;26.06;100.00
39129;BME280;24864;49.940;19.770;2022-08-20T08:59:17;97649.69;;;26.15;100.00
39129;BME280;24864;49.940;19.770;2022-08-20T09:01:48;97649.88;;;26.39;100.00
39129;BME280;24864;49.940;19.770;2022-08-20T09:04:23;97653.16;;;26.66;100.00
39129;BME280;24864;49.940;19.770;2022-08-20T09:06:57;97653.34;;;26.90;100.00
39129;BME280;24864;49.940;19.770;2022-08-20T09:09:28;97650.06;;;26.64;100.00
39129;BME280;24864;49.940;19.770;2022-08-20T09:12:04;97647.56;;;26.66;100.00
39129;BME280;24864;49.940;19.770;2022-08-20T09:14:33;97644.81;;;26.84;100.00
39129;BME280;24864;49.940;19.770;2022-08-20T09:17:02;97633.78;;;26.99;100.00
39129;BME280;24864;49.940;19.770;2022-08-20T09:19:30;97638.56;;;27.08;100.00
39129;BME280;24864;49.940;19.770;2022-08-20T09:21:58;97640.25;;;27.24;100.00
39129;BME280;24864;49.940;19.770;2022-08-20T09:24:33;97643.63;;;27.47;100.00
39129;BME280;24864;49.940;19.770;2022-08-20T09:27:02;97643.50;;;27.32;100.00
39129;BME280;24864;49.940;19.770;2022-08-20T09:29:30;97634.53;;;27.09;100.00
39129;BME280;24864;49.940;19.770;2022-08-20T09:32:03;97637.91;;;27.41;100.00
39129;BME280;24864;49.940;19.770;2022-08-20T09:34:34;97634.50;;;27.80;100.00
39129;BME280;24864;49.940;19.770;2022-08-20T09:37:02;97642.06;;;27.88;100.00
39129;BME280;24864;49.940;19.770;2022-08-20T09:39:30;97636.75;;;28.00;100.00
39129;BME280;24864;49.940;19.770;2022-08-20T09:42:07;97633.78;;;28.28;100.00
39129;BME280;24864;49.940;19.770;2022-08-20T09:44:35;97633.06;;;28.42;100.00
39129;BME280;24864;49.940;19.770;2022-08-20T09:47:04;97638.91;;;28.53;99.99
39129;BME280;24864;49.940;19.770;2022-08-20T09:49:32;97631.19;;;28.63;100.00
39129;BME280;24864;49.940;19.770;2022-08-20T09:52:00;97638.38;;;28.64;96.27
39129;BME280;24864;49.940;19.770;2022-08-20T09:54:29;97635.88;;;28.42;96.67
39129;BME280;24864;49.940;19.770;2022-08-20T09:57:02;97645.38;;;28.69;96.28
39129;BME280;24864;49.940;19.770;2022-08-20T09:59:33;97632.06;;;28.94;94.30
39129;BME280;24864;49.940;19.770;2022-08-20T10:02:02;97651.78;;;28.84;95.20
39129;BME280;24864;49.940;19.770;2022-08-20T10:04:30;97656.06;;;28.95;91.60
39129;BME280;24864;49.940;19.770;2022-08-20T10:06:58;97650.56;;;29.15;89.43
39129;BME280;24864;49.940;19.770;2022-08-20T10:09:26;97638.50;;;29.39;92.12
39129;BME280;24864;49.940;19.770;2022-08-20T10:11:53;97620.25;;;29.79;90.07
39129;BME280;24864;49.940;19.770;2022-08-20T10:14:22;97635.19;;;29.56;92.19
39129;BME280;24864;49.940;19.770;2022-08-20T10:16:55;97636.88;;;29.98;87.33
39129;BME280;24864;49.940;19.770;2022-08-20T10:19:26;97635.88;;;30.01;86.13
39129;BME280;24864;49.940;19.770;2022-08-20T10:21:56;97629.03;;;30.23;85.79
39129;BME280;24864;49.940;19.770;2022-08-20T10:24:25;97627.50;;;30.22;80.28
39129;BME280;24864;49.940;19.770;2022-08-20T10:26:54;97621.16;;;30.06;80.69
39129;BME280;24864;49.940;19.770;2022-08-20T10:29:23;97625.69;;;30.19;83.90
39129;BME280;24864;49.940;19.770;2022-08-20T10:31:51;97620.75;;;30.34;82.56
39129;BME280;24864;49.940;19.770;2022-08-20T10:34:22;97621.06;;;30.57;82.90
39129;BME280;24864;49.940;19.770;2022-08-20T10:36:50;97621.47;;;30.70;79.99
39129;BME280;24864;49.940;19.770;2022-08-20T10:39:18;97627.22;;;30.82;80.53
39129;BME280;24864;49.940;19.770;2022-08-20T10:41:47;97625.22;;;30.88;78.58
39129;BME280;24864;49.940;19.770;2022-08-20T10:44:15;97623.25;;;30.94;80.10
39129;BME280;24864;49.940;19.770;2022-08-20T10:46:43;97618.88;;;30.93;79.49
39129;BME280;24864;49.940;19.770;2022-08-20T10:49:11;97616.94;;;30.79;80.11
39129;BME280;24864;49.940;19.770;2022-08-20T10:51:40;97609.78;;;30.36;78.42
39129;BME280;24864;49.940;19.770;2022-08-20T10:54:08;97615.81;;;30.29;80.04
39129;BME280;24864;49.940;19.770;2022-08-20T10:56:38;97610.63;;;30.22;82.00
39129;BME280;24864;49.940;19.770;2022-08-20T10:59:06;97618.09;;;30.25;79.85
39129;BME280;24864;49.940;19.770;2022-08-20T11:01:34;97613.59;;;30.54;78.93
39129;BME280;24864;49.940;19.770;2022-08-20T11:04:03;97614.16;;;30.58;79.02
39129;BME280;24864;49.940;19.770;2022-08-20T11:06:31;97613.03;;;30.70;78.33
39129;BME280;24864;49.940;19.770;2022-08-20T11:09:00;97603.75;;;30.43;81.17
39129;BME280;24864;49.940;19.770;2022-08-20T11:11:28;97601.78;;;30.50;78.55
39129;BME280;24864;49.940;19.770;2022-08-20T11:13:56;97602.06;;;30.52;82.22
39129;BME280;24864;49.940;19.770;2022-08-20T11:16:24;97600.53;;;30.51;77.43
39129;BME280;24864;49.940;19.770;2022-08-20T11:18:52;97592.31;;;30.73;78.69
39129;BME280;24864;49.940;19.770;2022-08-20T11:21:20;97587.63;;;30.44;78.99
39129;BME280;24864;49.940;19.770;2022-08-20T11:23:48;97590.59;;;30.35;79.33
39129;BME280;24864;49.940;19.770;2022-08-20T11:26:21;97580.94;;;30.41;77.26
39129;BME280;24864;49.940;19.770;2022-08-20T11:28:49;97577.59;;;30.37;80.81
39129;BME280;24864;49.940;19.770;2022-08-20T11:31:17;97579.56;;;30.31;77.80
39129;BME280;24864;49.940;19.770;2022-08-20T11:33:45;97576.03;;;30.36;77.46
39129;BME280;24864;49.940;19.770;2022-08-20T11:36:13;97580.88;;;30.36;76.49
39129;BME280;24864;49.940;19.770;2022-08-20T11:38:40;97569.91;;;30.38;77.11
39129;BME280;24864;49.940;19.770;2022-08-20T11:41:08;97576.59;;;30.40;76.56
39129;BME280;24864;49.940;19.770;2022-08-20T11:43:38;97566.91;;;30.00;74.61
39129;BME280;24864;49.940;19.770;2022-08-20T11:46:06;97576.59;;;29.84;76.95
39129;BME280;24864;49.940;19.770;2022-08-20T11:48:34;97575.53;;;29.61;77.36
39129;BME280;24864;49.940;19.770;2022-08-20T11:51:02;97564.69;;;29.54;79.46
39129;BME280;24864;49.940;19.770;2022-08-20T11:53:30;97564.25;;;29.40;81.10
39129;BME280;24864;49.940;19.770;2022-08-20T11:56:00;97566.19;;;29.34;81.07
39129;BME280;24864;49.940;19.770;2022-08-20T11:58:29;97570.91;;;29.28;82.17
39129;BME280;24864;49.940;19.770;2022-08-20T12:00:59;97560.56;;;29.34;82.46
39129;BME280;24864;49.940;19.770;2022-08-20T12:03:27;97550.78;;;29.29;83.10
39129;BME280;24864;49.940;19.770;2022-08-20T12:05:56;97557.47;;;29.32;82.50
39129;BME280;24864;49.940;19.770;2022-08-20T12:08:24;97558.72;;;29.31;86.18
39129;BME280;24864;49.940;19.770;2022-08-20T12:10:55;97559.69;;;29.13;84.04
39129;BME280;24864;49.940;19.770;2022-08-20T12:13:23;97562.97;;;29.11;85.70
39129;BME280;24864;49.940;19.770;2022-08-20T12:16:13;97570.91;;;28.68;89.01
39129;BME280;24864;49.940;19.770;2022-08-20T12:18:41;97569.69;;;27.96;94.52
39129;BME280;24864;49.940;19.770;2022-08-20T12:21:09;97568.91;;;27.62;100.00
39129;BME280;24864;49.940;19.770;2022-08-20T12:23:37;97581.75;;;26.83;100.00
39129;BME280;24864;49.940;19.770;2022-08-20T12:26:05;97584.66;;;25.64;100.00
39129;BME280;24864;49.940;19.770;2022-08-20T12:28:33;97586.84;;;25.70;100.00
39129;BME280;24864;49.940;19.770;2022-08-20T12:31:01;97601.66;;;25.48;100.00
39129;BME280;24864;49.940;19.770;2022-08-20T12:33:30;97622.06;;;25.13;100.00
39129;BME280;24864;49.940;19.770;2022-08-20T12:35:59;97632.09;;;24.66;100.00
39129;BME280;24864;49.940;19.770;2022-08-20T12:38:27;97649.44;;;24.35;100.00
39129;BME280;24864;49.940;19.770;2022-08-20T12:40:55;97650.94;;;24.01;100.00
39129;BME280;24864;49.940;19.770;2022-08-20T12:43:23;97652.28;;;23.71;100.00
39129;BME280;24864;49.940;19.770;2022-08-20T12:45:51;97671.31;;;23.85;100.00
39129;BME280;24864;49.940;19.770;2022-08-20T12:48:19;97669.19;;;23.77;100.00
39129;BME280;24864;49.940;19.770;2022-08-20T12:50:48;97680.66;;;23.79;100.00
39129;BME280;24864;49.940;19.770;2022-08-20T12:53:18;97681.97;;;23.48;100.00
39129;BME280;24864;49.940;19.770;2022-08-20T12:55:46;97689.19;;;23.46;100.00
39129;BME280;24864;49.940;19.770;2022-08-20T12:58:14;97686.72;;;23.22;100.00
39129;BME280;24864;49.940;19.770;2022-08-20T13:00:43;97715.59;;;22.95;100.00